Time;durP1;ratioP1;P1;durP2;ratioP2;P2;SDS_P1;SDS_P2;PMS_P1;PMS_P2;Temp;Humidity;BMP_temperature;BMP_pressure;BME280_temperature;BME280_humidity;BME280_pressure;Samples;Min_cycle;Max_cycle;Signal;HPM_P1;HPM_P2
2021/10/11 00:01:19;;;;;;;;;;;;;;;13.58;59.94;100328.19;4441445;32;20690;-91
2021/10/11 00:03:44;;;;;;;;;;;;;;;13.68;59.94;100317.34;4440537;32;19993;-89
2021/10/11 00:06:10;;;;;;;;;;;;;;;13.78;59.94;100326.59;4440400;32;20235;-88
2021/10/11 00:08:35;;;;;;;;;;;;;;;13.70;59.94;100323.38;4439867;32;20011;-87
2021/10/11 00:11:00;;;;;;;;;;;;;;;13.66;59.94;100323.53;4439720;32;20800;-89
2021/10/11 00:13:25;;;;;;;;;;;;;;;13.57;59.93;100329.09;4439449;32;19990;-88
2021/10/11 00:15:51;;;;;;;;;;;;;;;13.74;59.94;100322.37;4439655;32;20003;-88
2021/10/11 00:18:18;;;;;;;;;;;;;;;13.51;59.93;100332.81;4439967;32;20318;-88
2021/10/11 00:20:43;;;;;;;;;;;;;;;13.35;59.92;100331.59;4440405;32;19958;-88
2021/10/11 00:23:10;;;;;;;;;;;;;;;13.35;59.93;100336.84;4439764;32;19969;-88
2021/10/11 00:25:35;;;;;;;;;;;;;;;13.32;59.92;100332.56;4439811;32;20011;-86
2021/10/11 00:28:00;;;;;;;;;;;;;;;13.27;59.93;100331.87;4438978;32;20294;-86
2021/10/11 00:30:25;;;;;;;;;;;;;;;13.21;59.91;100322.47;4437993;32;20122;-85
2021/10/11 00:32:51;;;;;;;;;;;;;;;13.40;59.92;100327.91;4438021;32;21569;-87
2021/10/11 00:35:16;;;;;;;;;;;;;;;13.28;59.92;100319.66;4438394;32;20001;-85
2021/10/11 00:37:41;;;;;;;;;;;;;;;13.21;59.92;100322.47;4438251;32;20246;-85
2021/10/11 00:40:07;;;;;;;;;;;;;;;13.36;59.92;100318.47;4439497;32;20072;-87
2021/10/11 00:42:32;;;;;;;;;;;;;;;13.15;59.91;100320.03;4439041;32;20005;-83
2021/10/11 00:44:57;;;;;;;;;;;;;;;13.06;59.91;100312.50;4438602;32;19985;-83
2021/10/11 00:47:23;;;;;;;;;;;;;;;13.23;59.92;100306.72;4436564;32;24039;-83
2021/10/11 00:49:48;;;;;;;;;;;;;;;13.19;59.92;100307.72;4423765;32;25485;-85
2021/10/11 00:52:13;;;;;;;;;;;;;;;13.32;59.92;100306.44;4423254;32;20949;-84
2021/10/11 00:54:38;;;;;;;;;;;;;;;13.11;59.90;100305.34;4437384;32;20012;-84
2021/10/11 00:57:04;;;;;;;;;;;;;;;12.96;59.91;100305.00;4436671;32;21917;-84
2021/10/11 00:59:29;;;;;;;;;;;;;;;13.05;59.91;100304.72;4437186;32;20003;-85
2021/10/11 01:01:54;;;;;;;;;;;;;;;13.06;59.91;100304.66;4438719;32;20017;-84
2021/10/11 01:04:19;;;;;;;;;;;;;;;13.33;59.92;100307.28;4438378;32;20023;-84
2021/10/11 01:06:45;;;;;;;;;;;;;;;13.08;59.91;100304.59;4437233;32;26912;-84
2021/10/11 01:09:10;;;;;;;;;;;;;;;13.17;59.91;100302.56;4438012;32;19993;-86
2021/10/11 01:11:36;;;;;;;;;;;;;;;13.21;59.91;100298.94;4424999;32;20346;-84
2021/10/11 01:14:01;;;;;;;;;;;;;;;13.13;59.92;100289.62;4437863;32;19997;-85
2021/10/11 01:16:26;;;;;;;;;;;;;;;13.26;59.92;100280.50;4438336;32;29858;-85
2021/10/11 01:18:51;;;;;;;;;;;;;;;13.18;59.92;100283.34;4424816;32;20031;-86
2021/10/11 01:21:16;;;;;;;;;;;;;;;13.21;59.91;100298.94;4438118;32;20322;-85
2021/10/11 01:23:42;;;;;;;;;;;;;;;13.17;59.91;100286.88;4438176;32;19981;-84
2021/10/11 01:26:07;;;;;;;;;;;;;;;13.29;59.92;100284.75;4437267;32;19989;-84
2021/10/11 01:28:32;;;;;;;;;;;;;;;13.41;59.92;100285.19;4437030;32;19994;-84
2021/10/11 01:30:57;;;;;;;;;;;;;;;13.26;59.92;100295.34;4424206;32;19981;-84
2021/10/11 01:33:23;;;;;;;;;;;;;;;13.17;59.91;100286.88;4423830;32;22313;-84
2021/10/11 01:35:48;;;;;;;;;;;;;;;13.29;59.92;100275.16;4437006;32;19997;-84
2021/10/11 01:38:13;;;;;;;;;;;;;;;13.25;59.91;100277.91;4437009;32;19989;-83
2021/10/11 01:40:39;;;;;;;;;;;;;;;13.44;59.93;100274.59;4436895;32;20001;-85
2021/10/11 01:43:05;;;;;;;;;;;;;;;13.51;59.94;100273.50;4424147;32;20062;-83
2021/10/11 01:45:31;;;;;;;;;;;;;;;13.29;59.92;100266.47;4437157;32;20008;-84
2021/10/11 01:47:56;;;;;;;;;;;;;;;13.44;59.93;100261.53;4436802;32;19993;-84
2021/10/11 01:50:21;;;;;;;;;;;;;;;13.47;59.92;100263.19;4436558;32;27760;-85
2021/10/11 01:52:46;;;;;;;;;;;;;;;13.47;59.92;100252.72;4436251;32;31977;-85
2021/10/11 01:55:12;;;;;;;;;;;;;;;13.56;59.92;100251.56;4439121;32;19985;-86
2021/10/11 01:57:37;;;;;;;;;;;;;;;13.23;59.91;100264.03;4437136;32;31023;-86
2021/10/11 02:00:04;;;;;;;;;;;;;;;13.33;59.92;100253.22;4437597;32;21959;-85
2021/10/11 02:02:29;;;;;;;;;;;;;;;13.33;59.92;100252.38;4437788;32;20036;-86
2021/10/11 02:04:54;;;;;;;;;;;;;;;13.25;59.91;100254.37;4439291;32;20031;-87
2021/10/11 02:07:19;;;;;;;;;;;;;;;13.22;59.91;100244.88;4439324;32;20000;-85
2021/10/11 02:09:44;;;;;;;;;;;;;;;13.22;59.91;100247.50;4438318;32;27474;-87
2021/10/11 02:12:10;;;;;;;;;;;;;;;13.23;59.91;100254.44;4438268;32;34408;-86
2021/10/11 02:14:35;;;;;;;;;;;;;;;13.22;59.91;100247.50;4438059;32;27419;-87
2021/10/11 02:17:00;;;;;;;;;;;;;;;13.09;59.90;100256.66;4437441;32;28294;-87
2021/10/11 02:19:25;;;;;;;;;;;;;;;13.06;59.91;100247.16;4437710;32;20377;-87
2021/10/11 02:21:51;;;;;;;;;;;;;;;12.99;59.90;100234.34;4437424;32;20041;-86
2021/10/11 02:24:16;;;;;;;;;;;;;;;13.01;59.90;100233.41;4436973;32;20336;-85
2021/10/11 02:26:41;;;;;;;;;;;;;;;12.94;59.90;100225.81;4436611;32;24479;-86
2021/10/11 02:29:06;;;;;;;;;;;;;;;12.99;59.90;100219.50;4436992;32;32753;-87
2021/10/11 02:31:31;;;;;;;;;;;;;;;12.88;59.91;100224.25;4438448;32;19985;-86
2021/10/11 02:33:57;;;;;;;;;;;;;;;12.89;59.90;100224.22;4437313;32;26237;-86
2021/10/11 02:36:22;;;;;;;;;;;;;;;12.88;59.90;100219.87;4436386;32;30760;-86
2021/10/11 02:38:47;;;;;;;;;;;;;;;12.87;59.89;100219.94;4436303;32;30388;-85
2021/10/11 02:41:12;;;;;;;;;;;;;;;12.78;59.89;100215.03;4438319;32;29110;-86
2021/10/11 02:43:37;;;;;;;;;;;;;;;12.92;59.90;100218.03;4431176;32;20257;-86
2021/10/11 02:46:03;;;;;;;;;;;;;;;12.80;59.89;100213.22;4437239;32;19977;-86
2021/10/11 02:48:28;;;;;;;;;;;;;;;12.87;59.89;100209.50;4436917;32;23144;-86
2021/10/11 02:50:53;;;;;;;;;;;;;;;12.98;59.90;100212.56;4436408;32;24721;-86
2021/10/11 02:53:18;;;;;;;;;;;;;;;12.83;59.89;100210.50;4436833;32;20004;-84
2021/10/11 02:55:44;;;;;;;;;;;;;;;13.00;59.90;100205.53;4435994;32;20032;-83
2021/10/11 02:58:09;;;;;;;;;;;;;;;12.93;59.90;100206.66;4435175;32;23372;-83
2021/10/11 03:00:34;;;;;;;;;;;;;;;12.91;59.90;100208.47;4436350;32;26896;-83
2021/10/11 03:02:59;;;;;;;;;;;;;;;12.78;59.89;100215.91;4435232;32;23396;-84
2021/10/11 03:05:24;;;;;;;;;;;;;;;12.64;59.88;100212.03;4435348;32;27178;-83
2021/10/11 03:07:50;;;;;;;;;;;;;;;12.71;59.88;100205.69;4436241;32;28573;-84
2021/10/11 03:10:15;;;;;;;;;;;;;;;12.72;59.88;100207.38;4434966;32;29070;-84
2021/10/11 03:12:40;;;;;;;;;;;;;;;12.72;59.88;100212.63;4434769;32;33027;-84
2021/10/11 03:15:05;;;;;;;;;;;;;;;12.77;59.89;100202.84;4435205;32;22657;-84
2021/10/11 03:17:31;;;;;;;;;;;;;;;12.71;59.88;100201.31;4424783;32;20065;-83
2021/10/11 03:19:56;;;;;;;;;;;;;;;12.70;59.88;100196.13;4437681;32;19999;-83
2021/10/11 03:22:21;;;;;;;;;;;;;;;12.82;59.90;100193.97;4437429;32;19989;-84
2021/10/11 03:24:46;;;;;;;;;;;;;;;12.91;59.90;100184.97;4436833;32;30323;-83
2021/10/11 03:27:12;;;;;;;;;;;;;;;12.76;59.89;100190.69;4437029;32;26550;-83
2021/10/11 03:29:37;;;;;;;;;;;;;;;12.67;59.89;100185.81;4436908;32;26108;-83
2021/10/11 03:32:02;;;;;;;;;;;;;;;12.55;59.87;100179.25;4437487;32;20047;-83
2021/10/11 03:34:27;;;;;;;;;;;;;;;12.79;59.89;100172.34;4437539;32;19996;-83
2021/10/11 03:36:53;;;;;;;;;;;;;;;12.65;59.87;100178.03;4438083;32;32535;-84
2021/10/11 03:39:18;;;;;;;;;;;;;;;13.04;59.91;100174.94;4436981;32;28363;-84
2021/10/11 03:41:43;;;;;;;;;;;;;;;12.93;59.90;100177.06;4437911;32;20000;-84
2021/10/11 03:44:08;;;;;;;;;;;;;;;12.49;59.87;100172.44;4438765;32;20266;-84
2021/10/11 03:46:34;;;;;;;;;;;;;;;12.65;59.88;100174.56;4437857;32;19996;-85
2021/10/11 03:48:59;;;;;;;;;;;;;;;12.60;59.88;100169.50;4437391;32;20024;-83
2021/10/11 03:51:24;;;;;;;;;;;;;;;12.52;59.88;100169.72;4437832;32;19970;-86
2021/10/11 03:53:49;;;;;;;;;;;;;;;12.54;59.87;100165.34;4437416;32;25202;-85
2021/10/11 03:56:15;;;;;;;;;;;;;;;12.76;59.88;100168.03;4438328;32;19988;-87
2021/10/11 03:58:40;;;;;;;;;;;;;;;12.74;59.89;100162.03;4439445;32;20004;-86
2021/10/11 04:01:05;;;;;;;;;;;;;;;12.74;59.89;100169.84;4438235;32;25041;-85
2021/10/11 04:03:31;;;;;;;;;;;;;;;12.75;59.89;100163.72;4437815;32;20035;-85
2021/10/11 04:05:56;;;;;;;;;;;;;;;12.77;59.89;100155.84;4437782;32;19990;-85
2021/10/11 04:08:23;;;;;;;;;;;;;;;12.73;59.89;100154.25;4438085;32;20006;-86
2021/10/11 04:11:07;;;;;;;;;;;;;;;12.86;59.89;100156.38;4438124;32;20005;-85
2021/10/11 04:13:32;;;;;;;;;;;;;;;13.04;59.91;100156.66;4439186;32;19986;-87
2021/10/11 04:15:57;;;;;;;;;;;;;;;13.02;59.90;100161.09;4438643;32;20023;-86
2021/10/11 04:18:22;;;;;;;;;;;;;;;12.94;59.90;100157.88;4438868;32;20039;-86
2021/10/11 04:20:47;;;;;;;;;;;;;;;12.94;59.90;100161.34;4439640;32;20005;-87
2021/10/11 04:23:13;;;;;;;;;;;;;;;12.84;59.89;100162.56;4438900;32;20027;-87
2021/10/11 04:25:38;;;;;;;;;;;;;;;13.06;59.91;100160.06;4439000;32;20014;-87
2021/10/11 04:28:03;;;;;;;;;;;;;;;12.81;59.90;100157.47;4439531;32;24854;-87
2021/10/11 04:30:29;;;;;;;;;;;;;;;12.79;59.89;100154.06;4426540;32;20284;-87
2021/10/11 04:32:54;;;;;;;;;;;;;;;12.75;59.89;100153.28;4439149;32;20017;-87
2021/10/11 04:35:22;;;;;;;;;;;;;;;12.62;59.88;100162.44;4439356;32;20023;-87
2021/10/11 04:37:47;;;;;;;;;;;;;;;12.76;59.89;100156.75;4439583;32;20658;-86
2021/10/11 04:40:12;;;;;;;;;;;;;;;12.80;59.89;100163.59;4439511;32;19997;-87
2021/10/11 04:42:38;;;;;;;;;;;;;;;12.69;59.88;100168.31;4438920;32;19992;-87
2021/10/11 04:45:03;;;;;;;;;;;;;;;12.58;59.88;100159.09;4440087;32;19990;-87
2021/10/11 04:47:28;;;;;;;;;;;;;;;12.84;59.89;100154.75;4439899;32;20294;-88
2021/10/11 04:49:53;;;;;;;;;;;;;;;12.52;59.87;100155.81;4439247;32;33201;-87
2021/10/11 04:52:19;;;;;;;;;;;;;;;12.54;59.88;100154.03;4438792;32;35175;-87
2021/10/11 04:54:44;;;;;;;;;;;;;;;12.54;59.88;100151.44;4438958;32;20602;-88
2021/10/11 04:57:09;;;;;;;;;;;;;;;12.72;59.88;100149.94;4439022;32;20005;-88
2021/10/11 04:59:34;;;;;;;;;;;;;;;12.69;59.89;100150.03;4440899;32;20009;-87
2021/10/11 05:01:59;;;;;;;;;;;;;;;12.69;59.89;100153.50;4438828;32;34123;-87
2021/10/11 05:04:25;;;;;;;;;;;;;;;12.64;59.88;100154.56;4439526;32;19985;-87
2021/10/11 05:06:50;;;;;;;;;;;;;;;12.50;59.88;100158.47;4439687;32;19990;-88
2021/10/11 05:09:15;;;;;;;;;;;;;;;12.60;59.88;100159.03;4440956;32;19997;-88
2021/10/11 05:11:40;;;;;;;;;;;;;;;12.66;59.89;100155.37;4439727;32;20522;-87
2021/10/11 05:14:05;;;;;;;;;;;;;;;12.62;59.88;100152.00;4439236;32;27713;-88
2021/10/11 05:16:34;;;;;;;;;;;;;;;12.60;59.88;100146.00;4439799;32;20005;-87
2021/10/11 05:19:00;;;;;;;;;;;;;;;12.55;59.87;100150.53;4440535;32;20316;-87
2021/10/11 05:21:25;;;;;;;;;;;;;;;12.57;59.87;100151.31;4440041;32;20038;-88
2021/10/11 05:23:50;;;;;;;;;;;;;;;12.58;59.88;100148.66;4440283;32;19966;-88
2021/10/11 05:26:15;;;;;;;;;;;;;;;12.52;59.87;100154.06;4439211;32;37372;-88
2021/10/11 05:28:41;;;;;;;;;;;;;;;12.47;59.87;100148.16;4439290;32;33891;-88
2021/10/11 05:31:06;;;;;;;;;;;;;;;12.55;59.88;100156.59;4440267;32;19981;-86
2021/10/11 05:33:31;;;;;;;;;;;;;;;12.43;59.88;100151.75;4430129;32;19994;-89
2021/10/11 05:35:57;;;;;;;;;;;;;;;12.44;59.88;100152.63;4446764;32;20001;-88
2021/10/11 05:38:22;;;;;;;;;;;;;;;12.41;59.87;100161.41;4439035;32;20025;-87
2021/10/11 05:40:47;;;;;;;;;;;;;;;12.34;59.86;100157.31;4439632;32;19996;-87
2021/10/11 05:43:12;;;;;;;;;;;;;;;12.40;59.87;100164.94;4439680;32;19978;-88
2021/10/11 05:45:37;;;;;;;;;;;;;;;12.44;59.88;100165.66;4439313;32;29662;-88
2021/10/11 05:48:03;;;;;;;;;;;;;;;12.58;59.88;100161.72;4436106;32;19985;-87
2021/10/11 05:50:28;;;;;;;;;;;;;;;12.50;59.88;100166.31;4427041;32;20026;-88
2021/10/11 05:52:53;;;;;;;;;;;;;;;12.58;59.88;100164.31;4439089;32;28544;-87
2021/10/11 05:55:19;;;;;;;;;;;;;;;12.63;59.88;100163.31;4439513;32;20377;-88
2021/10/11 05:57:44;;;;;;;;;;;;;;;12.82;59.89;100164.41;4439078;32;20039;-88
2021/10/11 06:00:10;;;;;;;;;;;;;;;12.78;59.89;100161.03;4438587;32;23144;-88
2021/10/11 06:02:35;;;;;;;;;;;;;;;12.87;59.89;100163.31;4425490;32;19990;-88
2021/10/11 06:05:01;;;;;;;;;;;;;;;12.76;59.89;100162.81;4438358;32;20000;-88
2021/10/11 06:07:27;;;;;;;;;;;;;;;12.75;59.89;100176.78;4439173;32;20007;-88
2021/10/11 06:09:52;;;;;;;;;;;;;;;12.48;59.87;100180.31;4439173;32;19978;-88
2021/10/11 06:12:20;;;;;;;;;;;;;;;12.66;59.89;100181.47;4438616;32;20278;-89
2021/10/11 06:14:45;;;;;;;;;;;;;;;12.42;59.87;100183.16;4438774;32;20006;-88
2021/10/11 06:17:11;;;;;;;;;;;;;;;12.70;59.88;100190.91;4437508;32;28651;-87
2021/10/11 06:19:36;;;;;;;;;;;;;;;12.58;59.88;100185.22;4438510;32;21372;-88
2021/10/11 06:22:01;;;;;;;;;;;;;;;12.75;59.89;100182.00;4438207;32;20000;-87
2021/10/11 06:24:26;;;;;;;;;;;;;;;12.65;59.88;100182.38;4438569;32;20273;-88
2021/10/11 06:26:52;;;;;;;;;;;;;;;12.49;59.87;100188.09;4438052;32;20000;-88
2021/10/11 06:29:17;;;;;;;;;;;;;;;12.34;59.86;100190.38;4438467;32;19993;-88
2021/10/11 06:31:42;;;;;;;;;;;;;;;12.41;59.87;100199.72;4438614;32;19981;-88
2021/10/11 06:34:07;;;;;;;;;;;;;;;12.53;59.88;100194.06;4438017;32;19993;-89
2021/10/11 06:36:35;;;;;;;;;;;;;;;12.73;59.89;100191.66;4437882;32;20001;-88
2021/10/11 06:39:01;;;;;;;;;;;;;;;12.48;59.87;100196.00;4438282;32;20097;-88
2021/10/11 06:41:26;;;;;;;;;;;;;;;12.41;59.86;100200.56;4425072;32;19977;-88
2021/10/11 06:43:51;;;;;;;;;;;;;;;12.63;59.88;100195.50;4437338;32;21937;-88
2021/10/11 06:46:16;;;;;;;;;;;;;;;12.62;59.88;100200.78;4437146;32;24085;-88
2021/10/11 06:48:41;;;;;;;;;;;;;;;12.68;59.88;100195.34;4437621;32;19989;-88
2021/10/11 06:51:07;;;;;;;;;;;;;;;12.74;59.89;100205.56;4438344;32;20024;-88
2021/10/11 06:53:32;;;;;;;;;;;;;;;12.64;59.87;100191.12;4439077;32;25697;-88
2021/10/11 06:55:57;;;;;;;;;;;;;;;12.65;59.87;100198.91;4439022;32;32214;-88
2021/10/11 06:58:22;;;;;;;;;;;;;;;12.70;59.88;100193.53;4439310;32;26373;-89
2021/10/11 07:00:48;;;;;;;;;;;;;;;12.92;59.89;100202.34;4442892;32;19993;-88
2021/10/11 07:03:13;;;;;;;;;;;;;;;12.84;59.89;100196.53;4439331;32;20009;-88
2021/10/11 07:05:38;;;;;;;;;;;;;;;12.94;59.90;100197.91;4439591;32;20005;-87
2021/10/11 07:08:09;;;;;;;;;;;;;;;12.93;59.90;100201.44;4439393;32;20004;-88
2021/10/11 07:10:34;;;;;;;;;;;;;;;13.20;59.92;100200.50;4439973;32;19977;-88
2021/10/11 07:13:01;;;;;;;;;;;;;;;13.28;59.92;100194.16;4439334;32;20305;-88
2021/10/11 07:15:28;;;;;;;;;;;;;;;13.34;59.92;100193.94;4439897;32;20042;-88
2021/10/11 07:17:53;;;;;;;;;;;;;;;13.40;59.92;100193.72;4439874;32;20040;-89
2021/10/11 07:20:19;;;;;;;;;;;;;;;13.62;59.93;100193.78;4439011;32;32360;-88
2021/10/11 07:22:44;;;;;;;;;;;;;;;13.71;59.94;100191.66;4439475;32;20258;-88
2021/10/11 07:25:09;;;;;;;;;;;;;;;13.73;59.94;100195.09;4439611;32;20035;-88
2021/10/11 07:27:34;;;;;;;;;;;;;;;13.87;59.94;100197.16;4437647;32;27083;-88
2021/10/11 07:30:00;;;;;;;;;;;;;;;13.85;59.94;100198.12;4437570;32;30547;-88
2021/10/11 07:32:26;;;;;;;;;;;;;;;13.84;59.94;100199.91;4439473;32;20053;-87
2021/10/11 07:34:51;;;;;;;;;;;;;;;13.82;59.95;100199.13;4438769;32;26221;-88
2021/10/11 07:37:16;;;;;;;;;;;;;;;13.93;59.94;100198.69;4439278;32;20050;-88
2021/10/11 07:39:41;;;;;;;;;;;;;;;13.89;59.95;100191.88;4439397;32;19994;-89
2021/10/11 07:42:07;;;;;;;;;;;;;;;14.16;59.96;100190.78;4438487;32;35357;-88
2021/10/11 07:44:32;;;;;;;;;;;;;;;14.25;59.96;100185.22;4438953;32;20015;-88
2021/10/11 07:46:58;;;;;;;;;;;;;;;14.30;59.97;100187.62;4439348;32;19973;-89
2021/10/11 07:49:23;;;;;;;;;;;;;;;14.45;59.98;100186.19;4439272;32;19993;-88
2021/10/11 07:51:48;;;;;;;;;;;;;;;14.17;59.96;100192.50;4439308;32;20003;-87
2021/10/11 07:54:16;;;;;;;;;;;;;;;14.23;59.96;100187.03;4438472;32;31403;-89
2021/10/11 07:56:45;;;;;;;;;;;;;;;14.22;59.97;100189.72;4439925;32;20008;-89
2021/10/11 07:59:10;;;;;;;;;;;;;;;14.30;59.96;100187.62;4439204;32;20027;-87
2021/10/11 08:01:36;;;;;;;;;;;;;;;14.35;59.97;100183.91;4440161;32;20306;-88
2021/10/11 08:04:03;;;;;;;;;;;;;;;14.29;59.97;100172.84;4426630;32;19989;-89
2021/10/11 08:06:29;;;;;;;;;;;;;;;14.45;59.97;100175.72;4439291;32;19977;-88
2021/10/11 08:08:55;;;;;;;;;;;;;;;14.42;59.98;100169.63;4439566;32;20319;-88
2021/10/11 08:11:20;;;;;;;;;;;;;;;14.55;59.98;100163.94;4438393;32;34486;-89
2021/10/11 08:13:46;;;;;;;;;;;;;;;14.32;59.97;100167.47;4439582;32;20001;-89
2021/10/11 08:16:11;;;;;;;;;;;;;;;14.38;59.97;100167.22;4439203;32;19997;-88
2021/10/11 08:18:36;;;;;;;;;;;;;;;14.39;59.97;100168.91;4439100;32;19988;-87
2021/10/11 08:21:04;;;;;;;;;;;;;;;14.44;59.98;100172.25;4438941;32;34100;-87
2021/10/11 08:23:31;;;;;;;;;;;;;;;14.08;59.96;100167.53;4440736;32;20004;-88
2021/10/11 08:25:56;;;;;;;;;;;;;;;13.98;59.95;100171.44;4443567;32;19981;-88
2021/10/11 08:28:21;;;;;;;;;;;;;;;13.98;59.95;100163.59;4445863;32;25886;-89
2021/10/11 08:30:46;;;;;;;;;;;;;;;14.07;59.96;100160.59;4441507;32;27971;-89
2021/10/11 08:33:12;;;;;;;;;;;;;;;14.29;59.97;100159.75;4439244;32;19997;-88
2021/10/11 08:35:37;;;;;;;;;;;;;;;14.06;59.95;100161.53;4438494;32;28429;-88
2021/10/11 08:38:02;;;;;;;;;;;;;;;14.05;59.96;100164.19;4438551;32;28485;-88
2021/10/11 08:40:27;;;;;;;;;;;;;;;14.28;59.97;100165.91;4438214;32;27300;-87
2021/10/11 08:42:52;;;;;;;;;;;;;;;14.16;59.96;100169.00;4438658;32;26064;-89
2021/10/11 08:45:18;;;;;;;;;;;;;;;13.92;59.94;100163.81;4438886;32;19998;-88
2021/10/11 08:47:43;;;;;;;;;;;;;;;14.19;59.96;100167.09;4426194;32;20000;-88
2021/10/11 08:50:11;;;;;;;;;;;;;;;14.06;59.96;100179.00;4439290;32;20309;-88
2021/10/11 08:52:36;;;;;;;;;;;;;;;14.39;59.97;100171.53;4439353;32;20076;-89
2021/10/11 08:55:02;;;;;;;;;;;;;;;14.20;59.97;100171.44;4426349;32;19996;-89
2021/10/11 08:57:32;;;;;;;;;;;;;;;14.45;59.98;100179.19;4438918;32;20337;-89
2021/10/11 09:00:10;;;;;;;;;;;;;;;14.55;59.98;100175.28;4426301;32;20362;-88
2021/10/11 09:02:35;;;;;;;;;;;;;;;14.46;59.98;100174.81;4440938;32;20030;-89
2021/10/11 09:05:00;;;;;;;;;;;;;;;14.58;59.99;100177.75;4438523;32;29419;-88
2021/10/11 09:07:26;;;;;;;;;;;;;;;14.46;59.98;100178.28;4426291;32;19978;-89
2021/10/11 09:09:52;;;;;;;;;;;;;;;14.54;59.98;100180.56;4439076;32;20387;-89
2021/10/11 09:12:18;;;;;;;;;;;;;;;14.82;60.00;100183.75;4440263;32;20051;-88
2021/10/11 09:14:46;;;;;;;;;;;;;;;14.86;60.00;100176.59;4425468;32;19977;-88
2021/10/11 09:17:20;;;;;;;;;;;;;;;14.92;60.00;100177.22;4439191;32;20579;-88
2021/10/11 09:19:57;;;;;;;;;;;;;;;14.81;60.00;100173.31;4426287;32;20002;-88
2021/10/11 09:22:30;;;;;;;;;;;;;;;14.74;60.00;100172.75;4439111;32;20759;-89
2021/10/11 09:24:59;;;;;;;;;;;;;;;14.80;60.00;100167.22;4439281;32;19977;-89
2021/10/11 09:27:24;;;;;;;;;;;;;;;15.23;60.02;100168.84;4438904;32;19977;-89
2021/10/11 09:29:49;;;;;;;;;;;;;;;15.51;60.04;100164.97;4438452;32;26908;-89
2021/10/11 09:32:14;;;;;;;;;;;;;;;15.63;60.05;100160.06;4437985;32;31575;-89
2021/10/11 09:34:39;;;;;;;;;;;;;;;15.49;60.04;100158.94;4438457;32;33593;-89
2021/10/11 09:37:05;;;;;;;;;;;;;;;15.59;60.04;100157.62;4439509;32;20021;-88
2021/10/11 09:39:31;;;;;;;;;;;;;;;15.55;60.04;100156.88;4425900;32;20538;-88
2021/10/11 09:41:57;;;;;;;;;;;;;;;15.36;60.03;100156.00;4425904;32;20379;-88
2021/10/11 09:44:22;;;;;;;;;;;;;;;15.51;60.03;100163.19;4438885;32;19990;-88
2021/10/11 09:46:48;;;;;;;;;;;;;;;15.40;60.03;100156.75;4438950;32;20322;-88
2021/10/11 09:49:13;;;;;;;;;;;;;;;15.59;60.04;100157.62;4425818;32;20462;-88
2021/10/11 09:51:38;;;;;;;;;;;;;;;15.59;60.04;100158.47;4438454;32;19985;-88
2021/10/11 09:54:04;;;;;;;;;;;;;;;15.62;60.04;100150.50;4425813;32;20005;-88
2021/10/11 09:56:29;;;;;;;;;;;;;;;15.67;60.04;100152.03;4437298;32;27075;-87
2021/10/11 09:58:54;;;;;;;;;;;;;;;15.36;60.03;100149.00;4437019;32;20023;-87
2021/10/11 10:01:21;;;;;;;;;;;;;;;14.98;60.01;100148.09;4437514;32;19997;-88
2021/10/11 10:03:46;;;;;;;;;;;;;;;14.87;60.01;100157.31;4438413;32;20344;-88
2021/10/11 10:06:11;;;;;;;;;;;;;;;14.96;60.01;100144.69;4438228;32;19978;-88
2021/10/11 10:08:37;;;;;;;;;;;;;;;15.11;60.02;100147.53;4437611;32;32909;-88
2021/10/11 10:11:02;;;;;;;;;;;;;;;15.04;60.01;100150.44;4438575;32;20028;-88
2021/10/11 10:13:28;;;;;;;;;;;;;;;15.05;60.01;100143.44;4438230;32;19999;-88
2021/10/11 10:15:56;;;;;;;;;;;;;;;15.08;60.01;100139.81;4438203;32;20283;-88
2021/10/11 10:18:21;;;;;;;;;;;;;;;14.86;60.00;100143.38;4438587;32;19997;-88
2021/10/11 10:20:59;;;;;;;;;;;;;;;14.77;59.99;100137.69;4438396;32;20046;-87
2021/10/11 10:23:37;;;;;;;;;;;;;;;14.75;59.99;100137.75;4438496;32;20325;-88
2021/10/11 10:26:03;;;;;;;;;;;;;;;14.67;59.99;100135.47;4439492;32;19954;-88
2021/10/11 10:28:29;;;;;;;;;;;;;;;14.64;59.99;100132.09;4427121;32;19994;-89
2021/10/11 10:30:55;;;;;;;;;;;;;;;14.46;59.97;100133.75;4428309;32;20009;-89
2021/10/11 10:33:20;;;;;;;;;;;;;;;14.52;59.98;100132.63;4427982;32;19989;-89
2021/10/11 10:35:46;;;;;;;;;;;;;;;14.54;59.98;100126.41;4437296;32;29266;-89
2021/10/11 10:38:21;;;;;;;;;;;;;;;14.57;59.99;100128.91;4425302;32;19980;-89
2021/10/11 10:40:46;;;;;;;;;;;;;;;14.54;59.98;100118.56;4439318;32;19985;-89
2021/10/11 10:43:16;;;;;;;;;;;;;;;14.57;59.99;100121.03;4438024;32;19997;-89
2021/10/11 10:45:41;;;;;;;;;;;;;;;14.57;59.98;100112.34;4425430;32;19977;-89
2021/10/11 10:48:16;;;;;;;;;;;;;;;14.53;59.98;100113.38;4438203;32;19992;-90
2021/10/11 10:50:41;;;;;;;;;;;;;;;14.63;59.98;100110.28;4437814;32;20012;-87
2021/10/11 10:53:06;;;;;;;;;;;;;;;14.51;59.98;100108.22;4437090;32;22644;-87
2021/10/11 10:55:35;;;;;;;;;;;;;;;14.37;59.97;100108.75;4437488;32;19988;-87
2021/10/11 10:58:00;;;;;;;;;;;;;;;13.89;59.95;100103.75;4437697;32;20481;-87
2021/10/11 11:00:25;;;;;;;;;;;;;;;14.07;59.96;100103.03;4424638;32;19993;-86
2021/10/11 11:02:51;;;;;;;;;;;;;;;14.24;59.96;100106.72;4437376;32;20045;-88
2021/10/11 11:05:16;;;;;;;;;;;;;;;14.24;59.96;100097.09;4437413;32;20015;-86
2021/10/11 11:07:42;;;;;;;;;;;;;;;14.28;59.97;100096.06;4437829;32;20009;-88
2021/10/11 11:10:24;;;;;;;;;;;;;;;14.35;59.98;100094.87;4437514;32;20023;-87
2021/10/11 11:12:50;;;;;;;;;;;;;;;14.43;59.98;100090.22;4424297;32;19986;-87
2021/10/11 11:15:25;;;;;;;;;;;;;;;14.22;59.97;100079.75;4424568;32;20113;-87
2021/10/11 11:17:51;;;;;;;;;;;;;;;14.13;59.96;100078.34;4438727;32;19977;-87
2021/10/11 11:20:18;;;;;;;;;;;;;;;14.50;59.98;100069.00;4439007;32;20038;-87
2021/10/11 11:22:43;;;;;;;;;;;;;;;14.56;59.99;100064.31;4425082;32;19981;-87
2021/10/11 11:25:09;;;;;;;;;;;;;;;14.51;59.98;100063.69;4437000;32;19993;-86
2021/10/11 11:27:35;;;;;;;;;;;;;;;14.51;59.98;100065.44;4436703;32;25160;-86
2021/10/11 11:30:02;;;;;;;;;;;;;;;14.66;59.99;100067.37;4423849;32;20043;-86
2021/10/11 11:32:27;;;;;;;;;;;;;;;14.61;59.99;100058.88;4424468;32;20037;-88
2021/10/11 11:34:52;;;;;;;;;;;;;;;14.66;59.99;100052.50;4436364;32;25511;-87
2021/10/11 11:37:18;;;;;;;;;;;;;;;14.73;60.00;100051.34;4438118;32;20249;-87
2021/10/11 11:39:43;;;;;;;;;;;;;;;14.74;60.00;100049.56;4439426;32;20023;-87
2021/10/11 11:42:08;;;;;;;;;;;;;;;14.90;60.00;100042.72;4438635;32;27813;-87
2021/10/11 11:44:33;;;;;;;;;;;;;;;15.10;60.02;100036.56;4439000;32;20303;-88
2021/10/11 11:47:03;;;;;;;;;;;;;;;15.32;60.03;100037.28;4438647;32;23639;-88
2021/10/11 11:49:28;;;;;;;;;;;;;;;15.14;60.01;100032.03;4426610;32;20778;-88
2021/10/11 11:52:23;;;;;;;;;;;;;;;15.07;60.01;100030.63;4439111;32;19986;-88
2021/10/11 11:54:56;;;;;;;;;;;;;;;15.04;60.01;100024.59;4436853;32;20044;-89
2021/10/11 11:57:22;;;;;;;;;;;;;;;14.98;60.01;100029.28;4440753;32;20523;-88
2021/10/11 11:59:47;;;;;;;;;;;;;;;14.92;60.00;100024.31;4439244;32;20065;-88
2021/10/11 12:02:14;;;;;;;;;;;;;;;14.94;60.00;100030.34;4439114;32;20012;-89
2021/10/11 12:04:40;;;;;;;;;;;;;;;15.03;60.01;100027.28;4439439;32;20023;-88
2021/10/11 12:07:05;;;;;;;;;;;;;;;15.20;60.02;100027.37;4439282;32;20021;-89
2021/10/11 12:09:31;;;;;;;;;;;;;;;15.18;60.02;100023.97;4438721;32;32331;-89
2021/10/11 12:12:05;;;;;;;;;;;;;;;15.17;60.02;100018.81;4438967;32;20250;-87
2021/10/11 12:14:31;;;;;;;;;;;;;;;15.20;60.02;100026.53;4426636;32;19973;-88
2021/10/11 12:17:02;;;;;;;;;;;;;;;15.40;60.03;100021.19;4438898;32;20004;-88
2021/10/11 12:19:31;;;;;;;;;;;;;;;15.44;60.03;100024.53;4426384;32;20114;-88
2021/10/11 12:21:56;;;;;;;;;;;;;;;15.49;60.04;100020.75;4439211;32;20367;-88
2021/10/11 12:24:23;;;;;;;;;;;;;;;15.42;60.04;100014.09;4439626;32;19985;-89
2021/10/11 12:26:48;;;;;;;;;;;;;;;15.58;60.04;100003.69;4439901;32;19993;-88
2021/10/11 12:29:13;;;;;;;;;;;;;;;15.78;60.04;100008.03;4439268;32;20313;-89